Flight Track Log - Related Links

Times and Time Zones

All times are in EDT time to prevent confusion due to time zone crossing. See the RPA4911 flight status page for this flight to view local times or setup timezone preferences in your user account.

Time Position Orientation Groundspeed Altitude Reporting Facility
EDT Latitude Longitude Course Direction KTS MPH feet Rate Location/Type
Tue 06:22:53 AM 42.7672 -73.8061 200° South 151 174 1,200  Level Boston Center
Tue 06:23:54 AM 42.8106 -73.8439 327° Northwest 222 255 3,400 2,227 Climbing Boston Center
Tue 06:25:00 AM 42.4463 -73.8575 196° South  Level Estimated
Tue 06:25:05 AM 42.7783 -73.9253 242° Southwest 216 249 6,100  Level Boston Center
Tue 06:26:00 AM 42.3453 -73.8759 197° South  Level Estimated
Tue 06:26:02 AM 42.7139 -73.9122 172° South 185 213 8,500  Level Boston Center
Tue 06:27:00 AM 42.2707 -73.9697 223° Southwest  Level FlightAware Approximate
Tue 06:27:04 AM 42.6453 -73.8936 169° South 217 250 10,400  Level Boston Center
Tue 06:28:00 AM 42.1693 -73.9828 200° South  Level Estimated
Tue 06:28:02 AM 42.5683 -73.8833 174° South 260 299 11,400  Level Boston Center
Tue 06:29:05 AM 42.4825 -73.9208 198° South 299 344 12,800 1,250 Climbing Boston Center
Tue 06:30:02 AM 42.4006 -73.9611 200° South 323 372 13,900 1,160 Climbing Boston Center
Tue 06:31:04 AM 42.3125 -73.9983 197° South 329 379 15,100 1,024 Climbing Boston Center
Tue 06:32:05 AM 42.2267 -74.0383 199° South 329 379 16,000 496 Climbing Boston Center
Tue 06:33:05 AM 42.1428 -74.0753 198° South 342 394 16,100 51 Climbing Boston Center
Tue 06:34:02 AM 42.0419 -74.1175 197° South 370 426 16,100 -923 Level Boston Center
Tue 06:35:02 AM 41.9328 -74.1675 199° South 382 440 14,300 -1,700 Descending Boston Center
Tue 06:36:02 AM 41.8447 -74.2042 197° South 377 434 12,700 -1,750 Descending Boston Center
Tue 06:37:02 AM 41.7419 -74.2486 198° South 364 419 10,800 -1,512 Descending Boston Center
Tue 06:38:05 AM 41.6642 -74.2825 198° South 345 397 9,600 -1,350 Descending Boston Center
Tue 06:39:02 AM 41.5783 -74.3189 198° South 313 360 8,100 -817 Descending Boston Center
Tue 06:41:16 AM 41.4000 -74.4000 199° South 293 337 7,000 -371 Descending New York TRACON
Tue 06:42:16 AM 41.3333 -74.4333 201° Southwest 296 341 6,900 -750 Descending New York TRACON
Tue 06:43:16 AM 41.2500 -74.3833 156° South 288 331 5,500 -1,000 Descending New York TRACON
Tue 06:44:10 AM 41.2000 -74.3333 143° Southeast 286 329 5,000 -278 Descending New York TRACON
Tue 06:45:04 AM 41.1333 -74.2833 151° Southeast 287 330 5,000  Level New York TRACON
Tue 06:46:04 AM 41.0667 -74.2333 151° Southeast 290 334 5,000  Level New York TRACON
Tue 06:46:59 AM 41.0000 -74.1833 150° Southeast 288 331 5,000  Level New York TRACON
Tue 06:47:58 AM 40.9500 -74.1333 143° Southeast 226 260 5,000 -421 Level New York TRACON
Tue 06:48:53 AM 40.9000 -74.1000 153° Southeast 221 254 4,200 -1,000 Descending New York TRACON
Tue 06:49:52 AM 40.8500 -74.0667 153° Southeast 227 261 3,100 -1,053 Descending New York TRACON
Tue 06:50:47 AM 40.8000 -74.1000 207° Southwest 213 245 2,200 -991 Descending New York TRACON
Tue 06:51:47 AM 40.7500 -74.1333 207° Southwest 183 211 1,200 -900 Descending New York TRACON
Tue 06:52:47 AM 40.7167 -74.1500 201° Southwest 140 161 400 -800 Descending New York TRACON

Login

Don't have an account? Register now (free) for customized features, flight alerts, and more!